sensor_id;sensor_type;location;lat;lon;timestamp;pressure;altitude;pressure_sealevel;temperature;humidity
36828;BME280;22766;48.042;11.192;2023-01-30T00:01:06;95552.53;;;-5.00;100.00
36828;BME280;22766;48.042;11.192;2023-01-30T00:03:38;95551.78;;;-5.03;100.00
36828;BME280;22766;48.042;11.192;2023-01-30T00:06:04;95551.75;;;-5.02;100.00
36828;BME280;22766;48.042;11.192;2023-01-30T00:08:31;95545.78;;;-4.99;100.00
36828;BME280;22766;48.042;11.192;2023-01-30T00:11:03;95537.44;;;-5.01;100.00
36828;BME280;22766;48.042;11.192;2023-01-30T00:13:30;95528.13;;;-4.98;100.00
36828;BME280;22766;48.042;11.192;2023-01-30T00:15:57;95526.00;;;-4.84;100.00
36828;BME280;22766;48.042;11.192;2023-01-30T00:18:23;95526.81;;;-4.83;100.00
36828;BME280;22766;48.042;11.192;2023-01-30T00:20:58;95521.38;;;-4.71;100.00
36828;BME280;22766;48.042;11.192;2023-01-30T00:23:25;95517.81;;;-4.64;100.00
36828;BME280;22766;48.042;11.192;2023-01-30T00:25:52;95521.44;;;-4.72;100.00
36828;BME280;22766;48.042;11.192;2023-01-30T00:28:19;95517.41;;;-4.78;100.00
36828;BME280;22766;48.042;11.192;2023-01-30T00:30:50;95518.13;;;-4.73;100.00
36828;BME280;22766;48.042;11.192;2023-01-30T00:33:18;95521.53;;;-4.76;100.00
36828;BME280;22766;48.042;11.192;2023-01-30T00:35:46;95510.88;;;-4.84;100.00
36828;BME280;22766;48.042;11.192;2023-01-30T00:38:13;95504.47;;;-4.92;100.00
36828;BME280;22766;48.042;11.192;2023-01-30T00:40:40;95509.53;;;-4.94;100.00
36828;BME280;22766;48.042;11.192;2023-01-30T00:43:10;95504.47;;;-4.92;100.00
36828;BME280;22766;48.042;11.192;2023-01-30T00:45:56;95500.44;;;-4.98;100.00
36828;BME280;22766;48.042;11.192;2023-01-30T00:48:42;95495.34;;;-4.96;100.00
36828;BME280;22766;48.042;11.192;2023-01-30T00:51:08;95492.97;;;-5.01;100.00
36828;BME280;22766;48.042;11.192;2023-01-30T00:53:35;95491.28;;;-5.00;100.00
36828;BME280;22766;48.042;11.192;2023-01-30T00:56:02;95490.94;;;-4.90;100.00
36828;BME280;22766;48.042;11.192;2023-01-30T00:58:28;95486.09;;;-4.96;100.00
36828;BME280;22766;48.042;11.192;2023-01-30T01:00:55;95493.88;;;-5.03;100.00
36828;BME280;22766;48.042;11.192;2023-01-30T01:03:22;95483.53;;;-4.94;100.00
36828;BME280;22766;48.042;11.192;2023-01-30T01:05:49;95471.81;;;-4.95;100.00
36828;BME280;22766;48.042;11.192;2023-01-30T01:08:15;95463.28;;;-4.91;100.00
36828;BME280;22766;48.042;11.192;2023-01-30T01:10:42;95448.63;;;-5.05;100.00
36828;BME280;22766;48.042;11.192;2023-01-30T01:13:10;95449.41;;;-5.03;100.00
36828;BME280;22766;48.042;11.192;2023-01-30T01:15:36;95444.06;;;-4.94;100.00
36828;BME280;22766;48.042;11.192;2023-01-30T01:18:04;95436.44;;;-4.91;100.00
36828;BME280;22766;48.042;11.192;2023-01-30T01:20:30;95438.16;;;-4.93;100.00
36828;BME280;22766;48.042;11.192;2023-01-30T01:22:57;95444.06;;;-4.94;100.00
36828;BME280;22766;48.042;11.192;2023-01-30T01:25:24;95440.22;;;-5.04;100.00
36828;BME280;22766;48.042;11.192;2023-01-30T01:27:51;95438.66;;;-5.08;100.00
36828;BME280;22766;48.042;11.192;2023-01-30T01:30:19;95443.22;;;-5.19;100.00
36828;BME280;22766;48.042;11.192;2023-01-30T01:32:45;95447.25;;;-5.13;100.00
36828;BME280;22766;48.042;11.192;2023-01-30T01:35:12;95449.06;;;-5.18;100.00
36828;BME280;22766;48.042;11.192;2023-01-30T01:37:39;95447.44;;;-5.19;100.00
36828;BME280;22766;48.042;11.192;2023-01-30T01:40:06;95446.47;;;-5.15;100.00
36828;BME280;22766;48.042;11.192;2023-01-30T01:42:52;95445.97;;;-5.26;100.00
36828;BME280;22766;48.042;11.192;2023-01-30T01:45:23;95442.03;;;-5.35;100.00
36828;BME280;22766;48.042;11.192;2023-01-30T01:48:18;95436.47;;;-5.44;100.00
36828;BME280;22766;48.042;11.192;2023-01-30T01:53:26;95417.22;;;-5.45;100.00
36828;BME280;22766;48.042;11.192;2023-01-30T01:55:57;95413.69;;;-5.40;100.00
36828;BME280;22766;48.042;11.192;2023-01-30T01:58:42;95414.41;;;-5.36;100.00
36828;BME280;22766;48.042;11.192;2023-01-30T02:01:11;95414.38;;;-5.35;100.00
36828;BME280;22766;48.042;11.192;2023-01-30T02:03:41;95415.88;;;-5.29;100.00
36828;BME280;22766;48.042;11.192;2023-01-30T02:06:10;95417.38;;;-5.24;100.00
36828;BME280;22766;48.042;11.192;2023-01-30T02:08:40;95430.72;;;-5.22;100.00
36828;BME280;22766;48.042;11.192;2023-01-30T02:11:20;95428.31;;;-5.25;100.00
36828;BME280;22766;48.042;11.192;2023-01-30T02:13:48;95429.53;;;-5.36;100.00
36828;BME280;22766;48.042;11.192;2023-01-30T02:16:19;95432.09;;;-5.38;100.00
36828;BME280;22766;48.042;11.192;2023-01-30T02:18:46;95430.34;;;-5.36;100.00
36828;BME280;22766;48.042;11.192;2023-01-30T02:26:59;95444.78;;;-5.42;100.00
36828;BME280;22766;48.042;11.192;2023-01-30T02:35:03;95435.56;;;-5.70;100.00
36828;BME280;22766;48.042;11.192;2023-01-30T02:41:04;95442.19;;;-5.67;100.00
36828;BME280;22766;48.042;11.192;2023-01-30T02:43:41;95444.16;;;-5.77;100.00
36828;BME280;22766;48.042;11.192;2023-01-30T02:48:46;95452.13;;;-5.90;100.00
36828;BME280;22766;48.042;11.192;2023-01-30T02:53:46;95458.66;;;-5.85;100.00
36828;BME280;22766;48.042;11.192;2023-01-30T02:56:14;95457.88;;;-5.87;100.00
36828;BME280;22766;48.042;11.192;2023-01-30T02:58:50;95474.59;;;-5.84;100.00
36828;BME280;22766;48.042;11.192;2023-01-30T03:01:31;95480.44;;;-5.84;100.00
36828;BME280;22766;48.042;11.192;2023-01-30T03:06:58;95503.06;;;-5.84;100.00
36828;BME280;22766;48.042;11.192;2023-01-30T03:09:47;95491.25;;;-5.82;100.00
36828;BME280;22766;48.042;11.192;2023-01-30T03:15:04;95490.84;;;-5.96;100.00
36828;BME280;22766;48.042;11.192;2023-01-30T03:17:35;95484.97;;;-5.96;100.00
36828;BME280;22766;48.042;11.192;2023-01-30T03:20:03;95482.22;;;-5.87;100.00
36828;BME280;22766;48.042;11.192;2023-01-30T03:22:30;95478.72;;;-5.83;100.00
36828;BME280;22766;48.042;11.192;2023-01-30T03:24:57;95474.28;;;-5.75;100.00
36828;BME280;22766;48.042;11.192;2023-01-30T03:27:24;95451.56;;;-5.72;100.00
36828;BME280;22766;48.042;11.192;2023-01-30T03:29:51;95454.81;;;-5.68;100.00
36828;BME280;22766;48.042;11.192;2023-01-30T03:32:18;95464.06;;;-5.69;100.00
36828;BME280;22766;48.042;11.192;2023-01-30T03:34:45;95455.22;;;-5.54;100.00
36828;BME280;22766;48.042;11.192;2023-01-30T03:37:12;95460.19;;;-5.51;100.00
36828;BME280;22766;48.042;11.192;2023-01-30T03:39:39;95456.00;;;-5.52;100.00
36828;BME280;22766;48.042;11.192;2023-01-30T03:42:06;95446.47;;;-5.43;100.00
36828;BME280;22766;48.042;11.192;2023-01-30T03:44:32;95440.91;;;-5.25;100.00
36828;BME280;22766;48.042;11.192;2023-01-30T03:46:59;95444.97;;;-5.21;100.00
36828;BME280;22766;48.042;11.192;2023-01-30T03:49:26;95431.84;;;-5.04;100.00
36828;BME280;22766;48.042;11.192;2023-01-30T03:51:55;95425.00;;;-5.01;100.00
36828;BME280;22766;48.042;11.192;2023-01-30T03:54:21;95420.91;;;-4.79;100.00
36828;BME280;22766;48.042;11.192;2023-01-30T03:56:48;95417.13;;;-4.67;100.00
36828;BME280;22766;48.042;11.192;2023-01-30T03:59:15;95425.66;;;-4.69;100.00
36828;BME280;22766;48.042;11.192;2023-01-30T04:01:48;95416.34;;;-4.67;100.00
36828;BME280;22766;48.042;11.192;2023-01-30T04:04:15;95430.25;;;-4.57;100.00
36828;BME280;22766;48.042;11.192;2023-01-30T04:06:42;95424.25;;;-4.30;100.00
36828;BME280;22766;48.042;11.192;2023-01-30T04:09:08;95422.78;;;-4.36;100.00
36828;BME280;22766;48.042;11.192;2023-01-30T04:11:40;95424.09;;;-4.49;100.00
36828;BME280;22766;48.042;11.192;2023-01-30T04:14:07;95436.63;;;-4.47;100.00
36828;BME280;22766;48.042;11.192;2023-01-30T04:16:43;95463.22;;;-4.16;100.00
36828;BME280;22766;48.042;11.192;2023-01-30T04:19:28;95458.41;;;-4.22;100.00
36828;BME280;22766;48.042;11.192;2023-01-30T04:21:55;95447.78;;;-4.30;100.00
36828;BME280;22766;48.042;11.192;2023-01-30T04:24:21;95440.31;;;-4.33;100.00
36828;BME280;22766;48.042;11.192;2023-01-30T04:26:48;95432.31;;;-4.21;100.00
36828;BME280;22766;48.042;11.192;2023-01-30T04:29:15;95423.50;;;-4.09;100.00
36828;BME280;22766;48.042;11.192;2023-01-30T04:31:43;95421.03;;;-4.11;100.00
36828;BME280;22766;48.042;11.192;2023-01-30T04:34:22;95425.19;;;-4.10;100.00
36828;BME280;22766;48.042;11.192;2023-01-30T04:36:48;95421.63;;;-4.04;100.00
36828;BME280;22766;48.042;11.192;2023-01-30T04:39:16;95415.59;;;-4.00;100.00
36828;BME280;22766;48.042;11.192;2023-01-30T04:41:42;95418.03;;;-3.97;100.00
36828;BME280;22766;48.042;11.192;2023-01-30T04:44:09;95415.41;;;-3.72;100.00
36828;BME280;22766;48.042;11.192;2023-01-30T04:46:49;95399.69;;;-3.57;100.00
36828;BME280;22766;48.042;11.192;2023-01-30T04:49:16;95389.47;;;-3.76;100.00
36828;BME280;22766;48.042;11.192;2023-01-30T04:51:42;95379.66;;;-3.84;100.00
36828;BME280;22766;48.042;11.192;2023-01-30T04:54:09;95378.16;;;-3.88;100.00
36828;BME280;22766;48.042;11.192;2023-01-30T04:56:36;95374.69;;;-3.85;100.00
36828;BME280;22766;48.042;11.192;2023-01-30T04:59:04;95391.97;;;-3.98;100.00
36828;BME280;22766;48.042;11.192;2023-01-30T05:01:37;95387.72;;;-3.96;100.00
36828;BME280;22766;48.042;11.192;2023-01-30T05:04:06;95388.69;;;-4.00;100.00
36828;BME280;22766;48.042;11.192;2023-01-30T05:06:33;95383.03;;;-4.06;100.00
36828;BME280;22766;48.042;11.192;2023-01-30T05:09:00;95383.16;;;-4.09;100.00
36828;BME280;22766;48.042;11.192;2023-01-30T05:11:28;95397.19;;;-4.02;100.00
36828;BME280;22766;48.042;11.192;2023-01-30T05:13:55;95399.16;;;-4.10;100.00
36828;BME280;22766;48.042;11.192;2023-01-30T05:16:22;95370.19;;;-4.22;100.00
36828;BME280;22766;48.042;11.192;2023-01-30T05:18:49;95359.28;;;-4.22;100.00
36828;BME280;22766;48.042;11.192;2023-01-30T05:21:21;95360.69;;;-4.15;100.00
36828;BME280;22766;48.042;11.192;2023-01-30T05:23:49;95369.31;;;-4.21;100.00
36828;BME280;22766;48.042;11.192;2023-01-30T05:26:16;95371.47;;;-4.33;100.00
36828;BME280;22766;48.042;11.192;2023-01-30T05:28:43;95363.56;;;-4.24;100.00
36828;BME280;22766;48.042;11.192;2023-01-30T05:31:11;95366.78;;;-4.21;100.00
36828;BME280;22766;48.042;11.192;2023-01-30T05:33:39;95365.31;;;-4.26;100.00
36828;BME280;22766;48.042;11.192;2023-01-30T05:36:07;95355.78;;;-4.18;100.00
36828;BME280;22766;48.042;11.192;2023-01-30T05:38:34;95365.91;;;-4.20;100.00
36828;BME280;22766;48.042;11.192;2023-01-30T05:41:04;95370.13;;;-4.20;100.00
36828;BME280;22766;48.042;11.192;2023-01-30T05:43:32;95369.31;;;-4.21;100.00
36828;BME280;22766;48.042;11.192;2023-01-30T05:46:00;95377.22;;;-4.08;100.00
36828;BME280;22766;48.042;11.192;2023-01-30T05:48:27;95369.56;;;-4.05;100.00
36828;BME280;22766;48.042;11.192;2023-01-30T05:50:56;95373.78;;;-4.06;100.00
36828;BME280;22766;48.042;11.192;2023-01-30T05:53:26;95381.47;;;-4.09;100.00
36828;BME280;22766;48.042;11.192;2023-01-30T05:55:58;95370.56;;;-4.09;100.00
36828;BME280;22766;48.042;11.192;2023-01-30T05:58:26;95362.38;;;-4.16;100.00
36828;BME280;22766;48.042;11.192;2023-01-30T06:00:53;95359.59;;;-4.08;100.00
36828;BME280;22766;48.042;11.192;2023-01-30T06:03:20;95346.88;;;-4.05;100.00
36828;BME280;22766;48.042;11.192;2023-01-30T06:05:46;95346.31;;;-3.90;100.00
36828;BME280;22766;48.042;11.192;2023-01-30T06:08:13;95358.50;;;-3.80;100.00
36828;BME280;22766;48.042;11.192;2023-01-30T06:10:39;95355.28;;;-3.61;100.00
36828;BME280;22766;48.042;11.192;2023-01-30T06:13:06;95357.41;;;-3.31;100.00
36828;BME280;22766;48.042;11.192;2023-01-30T06:15:33;95364.19;;;-3.53;100.00
36828;BME280;22766;48.042;11.192;2023-01-30T06:18:02;95368.78;;;-3.21;100.00
36828;BME280;22766;48.042;11.192;2023-01-30T06:20:29;95361.91;;;-2.97;100.00
36828;BME280;22766;48.042;11.192;2023-01-30T06:22:55;95356.81;;;-2.75;100.00
36828;BME280;22766;48.042;11.192;2023-01-30T06:25:22;95367.91;;;-2.79;100.00
36828;BME280;22766;48.042;11.192;2023-01-30T06:27:49;95364.25;;;-2.72;100.00
36828;BME280;22766;48.042;11.192;2023-01-30T06:30:15;95364.28;;;-2.54;100.00
36828;BME280;22766;48.042;11.192;2023-01-30T06:32:42;95362.44;;;-2.50;100.00
36828;BME280;22766;48.042;11.192;2023-01-30T06:35:08;95356.16;;;-2.60;100.00
36828;BME280;22766;48.042;11.192;2023-01-30T06:37:35;95346.81;;;-2.58;100.00
36828;BME280;22766;48.042;11.192;2023-01-30T06:40:02;95345.63;;;-2.70;100.00
36828;BME280;22766;48.042;11.192;2023-01-30T06:42:28;95344.28;;;-2.78;100.00
36828;BME280;22766;48.042;11.192;2023-01-30T06:44:55;95348.78;;;-2.85;100.00
36828;BME280;22766;48.042;11.192;2023-01-30T06:47:22;95343.19;;;-2.73;100.00
36828;BME280;22766;48.042;11.192;2023-01-30T06:49:48;95350.34;;;-2.62;100.00
36828;BME280;22766;48.042;11.192;2023-01-30T06:52:15;95359.53;;;-2.61;100.00
36828;BME280;22766;48.042;11.192;2023-01-30T06:54:41;95358.09;;;-2.67;100.00
36828;BME280;22766;48.042;11.192;2023-01-30T06:57:08;95369.13;;;-2.68;100.00
36828;BME280;22766;48.042;11.192;2023-01-30T06:59:35;95370.91;;;-2.71;100.00
36828;BME280;22766;48.042;11.192;2023-01-30T07:02:01;95375.06;;;-2.50;100.00
36828;BME280;22766;48.042;11.192;2023-01-30T07:04:31;95378.56;;;-2.53;100.00
36828;BME280;22766;48.042;11.192;2023-01-30T07:06:57;95388.69;;;-2.53;100.00
36828;BME280;22766;48.042;11.192;2023-01-30T07:09:24;95385.13;;;-2.49;100.00
36828;BME280;22766;48.042;11.192;2023-01-30T07:11:51;95384.66;;;-2.38;100.00
36828;BME280;22766;48.042;11.192;2023-01-30T07:14:17;95382.00;;;-2.35;100.00
36828;BME280;22766;48.042;11.192;2023-01-30T07:16:44;95379.44;;;-2.15;100.00
36828;BME280;22766;48.042;11.192;2023-01-30T07:19:10;95381.88;;;-2.14;100.00
36828;BME280;22766;48.042;11.192;2023-01-30T07:21:37;95384.75;;;-2.03;100.00
36828;BME280;22766;48.042;11.192;2023-01-30T07:24:04;95380.81;;;-2.08;100.00
36828;BME280;22766;48.042;11.192;2023-01-30T07:26:30;95389.41;;;-2.12;100.00
36828;BME280;22766;48.042;11.192;2023-01-30T07:28:57;95392.22;;;-2.00;100.00
36828;BME280;22766;48.042;11.192;2023-01-30T07:31:24;95393.03;;;-1.99;100.00
36828;BME280;22766;48.042;11.192;2023-01-30T07:33:50;95395.16;;;-2.09;100.00
36828;BME280;22766;48.042;11.192;2023-01-30T07:36:17;95403.81;;;-2.14;100.00
36828;BME280;22766;48.042;11.192;2023-01-30T07:38:43;95407.88;;;-2.10;100.00
36828;BME280;22766;48.042;11.192;2023-01-30T07:41:10;95400.84;;;-2.04;100.00
36828;BME280;22766;48.042;11.192;2023-01-30T07:43:37;95399.41;;;-2.09;100.00
36828;BME280;22766;48.042;11.192;2023-01-30T07:46:03;95397.22;;;-2.17;100.00
36828;BME280;22766;48.042;11.192;2023-01-30T07:48:30;95403.22;;;-2.01;100.00
36828;BME280;22766;48.042;11.192;2023-01-30T07:50:56;95403.84;;;-1.96;100.00
36828;BME280;22766;48.042;11.192;2023-01-30T07:53:23;95398.50;;;-1.90;100.00
36828;BME280;22766;48.042;11.192;2023-01-30T07:55:50;95393.84;;;-1.80;100.00
36828;BME280;22766;48.042;11.192;2023-01-30T07:58:16;95384.69;;;-1.64;100.00
36828;BME280;22766;48.042;11.192;2023-01-30T08:00:43;95391.69;;;-1.52;100.00
36828;BME280;22766;48.042;11.192;2023-01-30T08:03:15;95379.06;;;-1.35;100.00
36828;BME280;22766;48.042;11.192;2023-01-30T08:05:44;95383.19;;;-1.32;100.00
36828;BME280;22766;48.042;11.192;2023-01-30T08:08:12;95383.19;;;-1.15;100.00
36828;BME280;22766;48.042;11.192;2023-01-30T08:10:39;95390.06;;;-1.17;100.00
36828;BME280;22766;48.042;11.192;2023-01-30T08:13:05;95394.63;;;-1.07;100.00
36828;BME280;22766;48.042;11.192;2023-01-30T08:15:32;95395.00;;;-0.97;100.00
36828;BME280;22766;48.042;11.192;2023-01-30T08:17:59;95387.25;;;-0.77;100.00
36828;BME280;22766;48.042;11.192;2023-01-30T08:20:26;95380.88;;;-0.68;100.00
36828;BME280;22766;48.042;11.192;2023-01-30T08:22:53;95373.97;;;-0.65;100.00
36828;BME280;22766;48.042;11.192;2023-01-30T08:25:21;95373.81;;;-0.62;100.00
36828;BME280;22766;48.042;11.192;2023-01-30T08:27:48;95373.28;;;-0.68;100.00
36828;BME280;22766;48.042;11.192;2023-01-30T08:30:14;95379.19;;;-0.68;100.00
36828;BME280;22766;48.042;11.192;2023-01-30T08:32:43;95372.22;;;-0.64;100.00
36828;BME280;22766;48.042;11.192;2023-01-30T08:35:10;95365.47;;;-0.81;100.00
36828;BME280;22766;48.042;11.192;2023-01-30T08:37:40;95369.66;;;-0.80;100.00
36828;BME280;22766;48.042;11.192;2023-01-30T08:40:08;95358.53;;;-0.95;100.00
36828;BME280;22766;48.042;11.192;2023-01-30T08:42:34;95342.66;;;-0.98;100.00
36828;BME280;22766;48.042;11.192;2023-01-30T08:45:01;95349.97;;;-0.92;100.00
36828;BME280;22766;48.042;11.192;2023-01-30T08:47:28;95346.25;;;-0.85;100.00
36828;BME280;22766;48.042;11.192;2023-01-30T08:49:54;95345.13;;;-0.47;100.00
36828;BME280;22766;48.042;11.192;2023-01-30T08:52:21;95340.94;;;0.00;100.00
36828;BME280;22766;48.042;11.192;2023-01-30T08:54:47;95334.59;;;0.09;100.00
36828;BME280;22766;48.042;11.192;2023-01-30T08:57:14;95336.34;;;0.38;100.00
36828;BME280;22766;48.042;11.192;2023-01-30T08:59:41;95334.63;;;0.70;96.70
36828;BME280;22766;48.042;11.192;2023-01-30T09:02:09;95330.47;;;0.83;95.17
36828;BME280;22766;48.042;11.192;2023-01-30T09:04:36;95315.09;;;1.14;91.41
36828;BME280;22766;48.042;11.192;2023-01-30T09:07:03;95319.97;;;1.33;92.27
36828;BME280;22766;48.042;11.192;2023-01-30T09:09:30;95314.97;;;1.45;85.43
36828;BME280;22766;48.042;11.192;2023-01-30T09:11:56;95325.53;;;1.53;87.94
36828;BME280;22766;48.042;11.192;2023-01-30T09:14:23;95325.78;;;1.77;82.58
36828;BME280;22766;48.042;11.192;2023-01-30T09:16:50;95321.25;;;1.82;80.44
36828;BME280;22766;48.042;11.192;2023-01-30T09:19:25;95294.25;;;1.37;79.92
36828;BME280;22766;48.042;11.192;2023-01-30T09:21:53;95302.59;;;1.67;75.08
36828;BME280;22766;48.042;11.192;2023-01-30T09:24:21;95317.16;;;1.79;73.57
36828;BME280;22766;48.042;11.192;2023-01-30T09:26:55;95315.88;;;1.86;72.33
36828;BME280;22766;48.042;11.192;2023-01-30T09:29:25;95303.59;;;1.79;73.10
36828;BME280;22766;48.042;11.192;2023-01-30T09:31:51;95311.59;;;1.73;73.94
36828;BME280;22766;48.042;11.192;2023-01-30T09:34:22;95328.16;;;1.80;74.60
36828;BME280;22766;48.042;11.192;2023-01-30T09:36:55;95325.75;;;2.46;72.26
36828;BME280;22766;48.042;11.192;2023-01-30T09:39:22;95329.72;;;2.37;70.53
36828;BME280;22766;48.042;11.192;2023-01-30T09:52:44;95293.81;;;2.67;71.26
36828;BME280;22766;48.042;11.192;2023-01-30T09:55:27;95295.88;;;2.74;69.04
36828;BME280;22766;48.042;11.192;2023-01-30T09:57:58;95280.25;;;3.18;68.21
36828;BME280;22766;48.042;11.192;2023-01-30T10:00:31;95278.81;;;3.14;66.74
36828;BME280;22766;48.042;11.192;2023-01-30T10:03:10;95286.91;;;3.21;68.62
36828;BME280;22766;48.042;11.192;2023-01-30T10:06:15;95288.72;;;3.44;66.28
36828;BME280;22766;48.042;11.192;2023-01-30T10:19:55;95288.41;;;3.61;63.74
36828;BME280;22766;48.042;11.192;2023-01-30T10:22:49;95274.22;;;3.69;62.82
36828;BME280;22766;48.042;11.192;2023-01-30T10:30:50;95254.13;;;3.52;66.67
36828;BME280;22766;48.042;11.192;2023-01-30T10:33:22;95254.53;;;3.46;63.85
36828;BME280;22766;48.042;11.192;2023-01-30T10:36:03;95233.97;;;3.73;63.93
36828;BME280;22766;48.042;11.192;2023-01-30T10:43:51;95216.28;;;4.88;57.36
36828;BME280;22766;48.042;11.192;2023-01-30T10:46:43;95228.03;;;4.91;57.59
36828;BME280;22766;48.042;11.192;2023-01-30T10:49:39;95229.56;;;5.04;57.53
36828;BME280;22766;48.042;11.192;2023-01-30T10:55:28;95217.19;;;4.76;60.19
36828;BME280;22766;48.042;11.192;2023-01-30T11:00:59;95209.72;;;5.96;54.68
36828;BME280;22766;48.042;11.192;2023-01-30T11:06:18;95219.59;;;5.23;59.36
36828;BME280;22766;48.042;11.192;2023-01-30T11:08:50;95221.72;;;5.51;56.68
36828;BME280;22766;48.042;11.192;2023-01-30T11:11:42;95233.56;;;5.19;57.99
36828;BME280;22766;48.042;11.192;2023-01-30T11:14:13;95220.88;;;4.37;63.53
36828;BME280;22766;48.042;11.192;2023-01-30T11:16:52;95216.81;;;4.35;65.47
36828;BME280;22766;48.042;11.192;2023-01-30T11:19:30;95212.88;;;4.18;68.50
36828;BME280;22766;48.042;11.192;2023-01-30T11:22:03;95199.16;;;3.96;69.06
36828;BME280;22766;48.042;11.192;2023-01-30T11:24:39;95205.31;;;3.57;72.78
36828;BME280;22766;48.042;11.192;2023-01-30T11:27:23;95203.75;;;3.06;76.52
36828;BME280;22766;48.042;11.192;2023-01-30T11:32:29;95194.03;;;2.73;84.99
36828;BME280;22766;48.042;11.192;2023-01-30T11:37:36;95188.31;;;2.95;87.10
36828;BME280;22766;48.042;11.192;2023-01-30T11:43:12;95179.25;;;3.03;84.85
36828;BME280;22766;48.042;11.192;2023-01-30T11:45:48;95174.97;;;2.78;85.98
36828;BME280;22766;48.042;11.192;2023-01-30T11:48:20;95166.81;;;3.11;84.01
36828;BME280;22766;48.042;11.192;2023-01-30T11:51:09;95166.19;;;3.08;84.58
36828;BME280;22766;48.042;11.192;2023-01-30T11:53:37;95165.63;;;3.40;82.80
36828;BME280;22766;48.042;11.192;2023-01-30T11:56:14;95156.41;;;3.02;85.82
36828;BME280;22766;48.042;11.192;2023-01-30T11:58:42;95142.75;;;3.39;84.24
36828;BME280;22766;48.042;11.192;2023-01-30T12:01:15;95146.50;;;2.97;84.05
36828;BME280;22766;48.042;11.192;2023-01-30T12:03:52;95146.72;;;2.94;88.08
36828;BME280;22766;48.042;11.192;2023-01-30T12:06:27;95146.69;;;3.07;85.56
36828;BME280;22766;48.042;11.192;2023-01-30T12:08:55;95144.66;;;2.74;90.25
36828;BME280;22766;48.042;11.192;2023-01-30T12:11:30;95127.00;;;2.58;90.42
36828;BME280;22766;48.042;11.192;2023-01-30T12:24:59;95107.91;;;2.14;98.21
36828;BME280;22766;48.042;11.192;2023-01-30T12:33:04;95112.13;;;2.27;99.53
36828;BME280;22766;48.042;11.192;2023-01-30T12:35:50;95107.91;;;2.01;100.00
36828;BME280;22766;48.042;11.192;2023-01-30T12:38:27;95104.53;;;2.13;100.00
36828;BME280;22766;48.042;11.192;2023-01-30T12:47:27;95088.19;;;2.30;100.00
36828;BME280;22766;48.042;11.192;2023-01-30T12:52:53;95072.38;;;2.12;100.00
36828;BME280;22766;48.042;11.192;2023-01-30T13:04:15;95047.69;;;2.00;100.00
36828;BME280;22766;48.042;11.192;2023-01-30T13:14:54;95045.38;;;2.60;100.00
36828;BME280;22766;48.042;11.192;2023-01-30T13:17:36;95050.94;;;2.77;98.51
36828;BME280;22766;48.042;11.192;2023-01-30T13:25:40;95066.84;;;2.94;96.75
36828;BME280;22766;48.042;11.192;2023-01-30T13:30:59;95058.59;;;3.26;94.69
36828;BME280;22766;48.042;11.192;2023-01-30T13:33:31;95071.06;;;3.18;93.46
36828;BME280;22766;48.042;11.192;2023-01-30T13:36:24;95084.25;;;3.12;95.13
36828;BME280;22766;48.042;11.192;2023-01-30T13:41:21;95075.59;;;3.02;94.68
36828;BME280;22766;48.042;11.192;2023-01-30T13:43:52;95080.00;;;2.88;95.35
36828;BME280;22766;48.042;11.192;2023-01-30T13:46:25;95090.84;;;2.78;99.00
36828;BME280;22766;48.042;11.192;2023-01-30T13:57:22;95080.31;;;2.70;100.00
36828;BME280;22766;48.042;11.192;2023-01-30T14:03:25;95077.69;;;2.84;95.43
36828;BME280;22766;48.042;11.192;2023-01-30T14:06:03;95084.91;;;2.78;96.75
36828;BME280;22766;48.042;11.192;2023-01-30T14:14:18;95103.50;;;2.67;97.65
36828;BME280;22766;48.042;11.192;2023-01-30T14:16:49;95118.97;;;2.64;100.00
36828;BME280;22766;48.042;11.192;2023-01-30T14:22:35;95127.22;;;2.68;99.72
36828;BME280;22766;48.042;11.192;2023-01-30T14:25:52;95127.66;;;2.62;100.00
36828;BME280;22766;48.042;11.192;2023-01-30T14:30:57;95136.31;;;2.59;100.00
36828;BME280;22766;48.042;11.192;2023-01-30T14:38:43;95167.38;;;2.52;100.00
36828;BME280;22766;48.042;11.192;2023-01-30T14:41:26;95161.78;;;2.47;100.00
36828;BME280;22766;48.042;11.192;2023-01-30T14:43:53;95163.69;;;2.31;100.00
36828;BME280;22766;48.042;11.192;2023-01-30T14:57:01;95199.69;;;2.39;100.00
36828;BME280;22766;48.042;11.192;2023-01-30T14:59:46;95204.22;;;2.34;100.00
36828;BME280;22766;48.042;11.192;2023-01-30T15:02:40;95204.19;;;2.21;100.00
36828;BME280;22766;48.042;11.192;2023-01-30T15:05:12;95206.13;;;2.18;100.00
36828;BME280;22766;48.042;11.192;2023-01-30T15:26:25;95231.38;;;1.94;100.00
36828;BME280;22766;48.042;11.192;2023-01-30T15:31:59;95252.69;;;1.79;100.00
36828;BME280;22766;48.042;11.192;2023-01-30T15:34:31;95265.09;;;1.71;100.00
36828;BME280;22766;48.042;11.192;2023-01-30T15:36:59;95267.53;;;1.72;100.00
36828;BME280;22766;48.042;11.192;2023-01-30T15:39:27;95272.72;;;1.71;100.00
36828;BME280;22766;48.042;11.192;2023-01-30T15:42:03;95280.34;;;1.57;100.00
36828;BME280;22766;48.042;11.192;2023-01-30T15:47:30;95293.88;;;1.71;100.00
36828;BME280;22766;48.042;11.192;2023-01-30T15:50:08;95291.34;;;1.71;100.00
36828;BME280;22766;48.042;11.192;2023-01-30T15:55:02;95311.91;;;1.68;100.00
36828;BME280;22766;48.042;11.192;2023-01-30T15:57:34;95305.97;;;1.68;100.00
36828;BME280;22766;48.042;11.192;2023-01-30T16:00:04;95323.69;;;1.69;100.00
36828;BME280;22766;48.042;11.192;2023-01-30T16:02:37;95320.97;;;1.72;100.00
36828;BME280;22766;48.042;11.192;2023-01-30T16:05:16;95327.88;;;1.70;100.00
36828;BME280;22766;48.042;11.192;2023-01-30T16:07:45;95323.63;;;1.71;100.00
36828;BME280;22766;48.042;11.192;2023-01-30T16:10:19;95348.78;;;1.75;100.00
36828;BME280;22766;48.042;11.192;2023-01-30T16:12:47;95349.25;;;1.68;100.00
36828;BME280;22766;48.042;11.192;2023-01-30T16:15:29;95356.41;;;1.75;100.00
36828;BME280;22766;48.042;11.192;2023-01-30T16:20:58;95356.78;;;1.83;100.00
36828;BME280;22766;48.042;11.192;2023-01-30T16:26:23;95353.88;;;1.75;100.00